Observation data for Seymour on 12/08/2018      Previous  Date       Current Mesonet Observations  Soil Data  Daily Summary Page  Observations in Plain Language
KSE1 080600Z 35009KT 01/01 A3031 RMK A01 T00140009  RH  098%=      5-min Rain = 0
KSE1 080605Z 35009KT 01/01 A303 RMK A01 T00130008  RH  098%=      5-min Rain = 0.01
KSE1 080610Z 35008KT 01/01 A3031 RMK A01 T00130008  RH  098%=      5-min Rain = 0.01
KSE1 080615Z 35008KT 01/01 A303 RMK A01 T00130009  RH  098%=      5-min Rain = 0
KSE1 080620Z 36009KT 01/01 A303 RMK A01 T00130009  RH  098%=      5-min Rain = 0
KSE1 080625Z 36009KT 01/01 A3029 RMK A01 T00130009  RH  098%=      5-min Rain = 0.01
KSE1 080630Z 36009KT 01/01 A3029 RMK A01 T00130009  RH  098%=      5-min Rain = 0.01
KSE1 080635Z 36009G14KT 01/01 A3029 RMK A01 T00130009  RH  098%=      5-min Rain = 0.01
KSE1 080640Z 35010KT 01/01 A303 RMK A01 T00130009  RH  098%=      5-min Rain = 0.01
KSE1 080645Z 35010KT 01/01 A303 RMK A01 T00130009  RH  098%=      5-min Rain = 0.01
KSE1 080650Z 34011KT 01/01 A303 RMK A01 T00130009  RH  098%=      5-min Rain = 0
KSE1 080655Z 34010KT 01/01 A303 RMK A01 T00130008  RH  098%=      5-min Rain = 0.01
KSE1 080700Z 34011KT 01/01 A3031 RMK A01 T00120007  RH  098%=      5-min Rain = 0.01
KSE1 080705Z 34009KT 01/01 A3031 RMK A01 T00120007  RH  098%=      5-min Rain = 0.01
KSE1 080710Z 35010KT 01/01 A3031 RMK A01 T00120007  RH  098%=      5-min Rain = 0.01
KSE1 080715Z 35011KT 01/01 A303 RMK A01 T00120007  RH  098%=      5-min Rain = 0.01
KSE1 080720Z 35010KT 01/01 A303 RMK A01 T00120007  RH  098%=      5-min Rain = 0.01
KSE1 080725Z 35011KT 01/01 A303 RMK A01 T00120007  RH  098%=      5-min Rain = 0.01
KSE1 080730Z 36012KT 01/01 A3029 RMK A01 T00110007  RH  098%=      5-min Rain = 0
KSE1 080735Z 00011KT 01/01 A3029 RMK A01 T00110006  RH  098%=      5-min Rain = 0
KSE1 080740Z 00010KT 01/01 A3029 RMK A01 T00120008  RH  098%=      5-min Rain = 0
KSE1 080745Z 36011KT 01/01 A3029 RMK A01 T00120008  RH  098%=      5-min Rain = 0
KSE1 080750Z 36010KT 01/01 A3029 RMK A01 T00130008  RH  098%=      5-min Rain = 0.01
KSE1 080755Z 36011G16KT 01/01 A3029 RMK A01 T00130008  RH  098%=      5-min Rain = 0
KSE1 080800Z 36010KT 01/01 A303 RMK A01 T00130008  RH  098%=      5-min Rain = 0
KSE1 080805Z 35011KT 01/01 A303 RMK A01 T00130009  RH  098%=      5-min Rain = 0.01
KSE1 080810Z 35011KT 01/01 A303 RMK A01 T00130008  RH  098%=      5-min Rain = 0
KSE1 080815Z 35011KT 01/01 A303 RMK A01 T00130008  RH  098%=      5-min Rain = 0.01
KSE1 080820Z 35011KT 01/01 A3029 RMK A01 T00130008  RH  098%=      5-min Rain = 0.01
KSE1 080825Z 35012KT 01/01 A3029 RMK A01 T00130008  RH  098%=      5-min Rain = 0.01
KSE1 080830Z 36011KT 01/01 A3029 RMK A01 T00130008  RH  098%=      5-min Rain = 0.01
KSE1 080835Z 00014KT 01/01 A3029 RMK A01 T00130008  RH  098%=      5-min Rain = 0
KSE1 080840Z 00013KT 01/01 A3029 RMK A01 T00130008  RH  098%=      5-min Rain = 0.01
KSE1 080845Z 00012KT 01/01 A3029 RMK A01 T00130007  RH  098%=      5-min Rain = 0.01
KSE1 080850Z 00012KT 01/01 A3029 RMK A01 T00130008  RH  097%=      5-min Rain = 0.01
KSE1 080855Z 00011KT 01/01 A3029 RMK A01 T00130008  RH  097%=      5-min Rain = 0.01
KSE1 080900Z 00012KT 01/01 A3029 RMK A01 T00120007  RH  097%=      5-min Rain = 0.01
KSE1 080905Z 01012KT 01/01 A3029 RMK A01 T00110006  RH  097%=      5-min Rain = 0
KSE1 080910Z 01013KT 01/01 A3029 RMK A01 T00120006  RH  097%=      5-min Rain = 0.01
KSE1 080915Z 00012KT 01/01 A3029 RMK A01 T00110006  RH  097%=      5-min Rain = 0.01
KSE1 080920Z 00011KT 01/01 A3029 RMK A01 T00110006  RH  097%=      5-min Rain = 0
KSE1 080925Z 00012KT 01/01 A3029 RMK A01 T00110005  RH  097%=      5-min Rain = 0.01
KSE1 080930Z 00011KT 01/01 A3029 RMK A01 T00100005  RH  097%=      5-min Rain = 0
KSE1 080935Z 00012KT 01/01 A3029 RMK A01 T00100005  RH  097%=      5-min Rain = 0.01
KSE1 080940Z 00011KT 01/01 A3029 RMK A01 T00100005  RH  097%=      5-min Rain = 0
KSE1 080945Z 35011KT 01/01 A3028 RMK A01 T00110005  RH  097%=      5-min Rain = 0.01
KSE1 080950Z 35011KT 01/01 A3028 RMK A01 T00110005  RH  097%=      5-min Rain = 0
KSE1 080955Z 36012KT 01/00 A3028 RMK A01 T00100004  RH  097%=      5-min Rain = 0
KSE1 081000Z 00012KT 01/00 A3028 RMK A01 T00100004  RH  097%=      5-min Rain = 0
KSE1 081005Z 36011KT 01/01 A3028 RMK A01 T00100005  RH  097%=      5-min Rain = 0.01
KSE1 081010Z 00011G16KT 01/00 A3028 RMK A01 T00090003  RH  097%=      5-min Rain = 0
KSE1 081015Z 00012KT 01/00 A3028 RMK A01 T00080003  RH  097%=      5-min Rain = 0.01
KSE1 081020Z 00013KT 01/00 A3027 RMK A01 T00080003  RH  097%=      5-min Rain = 0.01
KSE1 081025Z 00012KT 01/00 A3027 RMK A01 T00090003  RH  097%=      5-min Rain = 0.01
KSE1 081030Z 36012KT 01/00 A3027 RMK A01 T00080003  RH  097%=      5-min Rain = 0
KSE1 081035Z 36011KT 01/00 A3027 RMK A01 T00080003  RH  097%=      5-min Rain = 0.01
KSE1 081040Z 36012KT 01/00 A3027 RMK A01 T00080002  RH  097%=      5-min Rain = 0
KSE1 081045Z 00014KT 01/00 A3027 RMK A01 T00070002  RH  097%=      5-min Rain = 0
KSE1 081050Z 00013G18KT 01/00 A3027 RMK A01 T00070002  RH  097%=      5-min Rain = 0
KSE1 081055Z 36011KT 01/00 A3027 RMK A01 T00080002  RH  097%=      5-min Rain = 0
KSE1 081100Z 35012KT 01/00 A3027 RMK A01 T00080002  RH  097%=      5-min Rain = 0
KSE1 081105Z 36013G18KT 01/00 A3027 RMK A01 T00070002  RH  097%=      5-min Rain = 0
KSE1 081110Z 35011KT 01/00 A3027 RMK A01 T00070002  RH  098%=      5-min Rain = 0
KSE1 081115Z 36012KT 01/00 A3027 RMK A01 T00070002  RH  098%=      5-min Rain = 0
KSE1 081120Z 36014KT 01/00 A3027 RMK A01 T00050000  RH  098%=      5-min Rain = 0
KSE1 081125Z 36014KT 01/M00 A3027 RMK A01 T00051001  RH  098%=      5-min Rain = 0
KSE1 081130Z 36013KT 00/M00 A3027 RMK A01 T00041001  RH  098%=      5-min Rain = 0.01
KSE1 081135Z 36013KT 00/M00 A3027 RMK A01 T00031002  RH  098%=      5-min Rain = 0
KSE1 081140Z 36013KT 00/M00 A3027 RMK A01 T00031002  RH  098%=      5-min Rain = 0
KSE1 081145Z 35013KT 00/M00 A3027 RMK A01 T00031002  RH  097%=      5-min Rain = 0.01
KSE1 081150Z 35013KT 00/M00 A3028 RMK A01 T00031003  RH  097%=      5-min Rain = 0
KSE1 081155Z 35014KT 00/M00 A3028 RMK A01 T00021003  RH  097%=      5-min Rain = 0.01
KSE1 081200Z 36013KT 00/M00 A3028 RMK A01 T00021004  RH  097%=      5-min Rain = 0.01
KSE1 081205Z 35012KT 00/M00 A3028 RMK A01 T00021004  RH  097%=      5-min Rain = 0
KSE1 081210Z 35011KT 00/M00 A3028 RMK A01 T00021004  RH  097%=      5-min Rain = 0.01
KSE1 081215Z 35011KT 00/M00 A3029 RMK A01 T00011004  RH  097%=      5-min Rain = 0
KSE1 081220Z 35011KT 00/M00 A3029 RMK A01 T00011004  RH  097%=      5-min Rain = 0
KSE1 081225Z 36011KT 00/M00 A3029 RMK A01 T00011004  RH  098%=      5-min Rain = 0
KSE1 081230Z 36011KT 00/M00 A3029 RMK A01 T00011004  RH  098%=      5-min Rain = 0
KSE1 081235Z 35011G16KT 00/M00 A3029 RMK A01 T00011004  RH  098%=      5-min Rain = 0
KSE1 081240Z 35011KT 00/01 A3029 RMK A01 T000000-5  RH  097%=      5-min Rain = 0
KSE1 081245Z 35011KT 00/01 A3029 RMK A01 T00-000-5  RH  098%=      5-min Rain = 0.01
KSE1 081250Z 34011KT M00/M01 A3029 RMK A01 T10011006  RH  098%=      5-min Rain = 0
KSE1 081255Z 34011KT M00/M01 A3029 RMK A01 T10011006  RH  098%=      5-min Rain = 0
KSE1 081300Z 35012KT M00/M01 A3029 RMK A01 T10011006  RH  098%=      5-min Rain = 0
KSE1 081305Z 34011KT M00/M01 A3029 RMK A01 T10021007  RH  098%=      5-min Rain = 0
KSE1 081310Z 35012KT M00/M01 A303 RMK A01 T10021007  RH  097%=      5-min Rain = 0
KSE1 081315Z 34012KT M00/M01 A303 RMK A01 T10021007  RH  097%=      5-min Rain = 0
KSE1 081320Z 35012KT M00/M01 A303 RMK A01 T10021008  RH  097%=      5-min Rain = 0
KSE1 081325Z 35011KT M00/M01 A303 RMK A01 T10021007  RH  097%=      5-min Rain = 0
KSE1 081330Z 34010KT M00/M01 A303 RMK A01 T10021007  RH  097%=      5-min Rain = 0
KSE1 081335Z 34012KT M00/M01 A303 RMK A01 T10031008  RH  098%=      5-min Rain = 0
KSE1 081340Z 35012KT M00/M01 A303 RMK A01 T10031008  RH  098%=      5-min Rain = 0
KSE1 081345Z 35012KT M00/M01 A303 RMK A01 T10031008  RH  098%=      5-min Rain = 0
KSE1 081350Z 34011KT M00/M01 A303 RMK A01 T10041008  RH  098%=      5-min Rain = 0
KSE1 081355Z 34010KT M00/M01 A3031 RMK A01 T10041008  RH  098%=      5-min Rain = 0
KSE1 081400Z 34011KT M01/M01 A3031 RMK A01 T10051008  RH  098%=      5-min Rain = 0
KSE1 081405Z 34012KT M01/M01 A3031 RMK A01 T10051008  RH  099%=      5-min Rain = 0
KSE1 081410Z 34013KT M01/M01 A3031 RMK A01 T10061009  RH  099%=      5-min Rain = 0
KSE1 081415Z 34013KT M01/M01 A3031 RMK A01 T10061009  RH  099%=      5-min Rain = 0
KSE1 081420Z 34014KT M01/M01 A3031 RMK A01 T10061009  RH  099%=      5-min Rain = 0
KSE1 081425Z 34014KT M01/M01 A3031 RMK A01 T10071009  RH  099%=      5-min Rain = 0
KSE1 081430Z 34014KT M01/M01 A3032 RMK A01 T10071009  RH  099%=      5-min Rain = 0
KSE1 081435Z 34014KT M01/M01 A3032 RMK A01 T10071010  RH  099%=      5-min Rain = 0
KSE1 081440Z 34015KT M01/M01 A3032 RMK A01 T10081010  RH  099%=      5-min Rain = 0
KSE1 081445Z 34014G19KT M01/M01 A3032 RMK A01 T10081010  RH  100%=      5-min Rain = 0
KSE1 081450Z 34014KT M01/M01 A3032 RMK A01 T10081010  RH  100%=      5-min Rain = 0
KSE1 081455Z 34015KT M01/M01 A3032 RMK A01 T10081010  RH  100%=      5-min Rain = 0
KSE1 081500Z 34013KT M01/M01 A3032 RMK A01 T10081010  RH  100%=      5-min Rain = 0
KSE1 081505Z 34014KT M01/M01 A3032 RMK A01 T10081010  RH  100%=      5-min Rain = 0
KSE1 081510Z 34013KT M01/M01 A3032 RMK A01 T10081010  RH  100%=      5-min Rain = 0
KSE1 081515Z 34013KT M01/M01 A3033 RMK A01 T10081010  RH  100%=      5-min Rain = 0
KSE1 081520Z 34015KT M01/M01 A3033 RMK A01 T10091010  RH  100%=      5-min Rain = 0
KSE1 081525Z 34014KT M01/M01 A3033 RMK A01 T10091010  RH  100%=      5-min Rain = 0
KSE1 081530Z 34014KT M01/M01 A3033 RMK A01 T10091010  RH  100%=      5-min Rain = 0
KSE1 081535Z 35013KT M01/M01 A3033 RMK A01 T10081010  RH  100%=      5-min Rain = 0
KSE1 081540Z 34014KT M01/M01 A3033 RMK A01 T10081009  RH  100%=      5-min Rain = 0
KSE1 081545Z 34014KT M01/M01 A3033 RMK A01 T10081009  RH  100%=      5-min Rain = 0
KSE1 081550Z 34014KT M01/M01 A3033 RMK A01 T10081009  RH  100%=      5-min Rain = 0
KSE1 081555Z 34014G19KT M01/M01 A3033 RMK A01 T10081009  RH  100%=      5-min Rain = 0
KSE1 081600Z 34013KT M01/M01 A3033 RMK A01 T10081009  RH  100%=      5-min Rain = 0
KSE1 081605Z 33011KT M01/M01 A3033 RMK A01 T10071008  RH  100%=      5-min Rain = 0
KSE1 081610Z 34013KT M01/M01 A3033 RMK A01 T10071008  RH  100%=      5-min Rain = 0
KSE1 081615Z 34014KT M01/M01 A3033 RMK A01 T10071009  RH  100%=      5-min Rain = 0
KSE1 081620Z 34014KT M01/M01 A3033 RMK A01 T10071008  RH  100%=      5-min Rain = 0
KSE1 081625Z 34013KT M01/M01 A3033 RMK A01 T10071008  RH  100%=      5-min Rain = 0
KSE1 081630Z 34014KT M01/M01 A3033 RMK A01 T10071008  RH  100%=      5-min Rain = 0
KSE1 081635Z 34014KT M01/M01 A3033 RMK A01 T10071008  RH  100%=      5-min Rain = 0
KSE1 081640Z 33012KT M01/M01 A3033 RMK A01 T10071008  RH  100%=      5-min Rain = 0
KSE1 081645Z 33012KT M01/M01 A3033 RMK A01 T10061008  RH  100%=      5-min Rain = 0
KSE1 081650Z 34015KT M01/M01 A3033 RMK A01 T10071008  RH  100%=      5-min Rain = 0
KSE1 081655Z 33013KT M01/M01 A3033 RMK A01 T10071008  RH  100%=      5-min Rain = 0
KSE1 081700Z 34014KT M01/M01 A3033 RMK A01 T10071008  RH  100%=      5-min Rain = 0
KSE1 081705Z 33015KT M01/M01 A3033 RMK A01 T10071008  RH  100%=      5-min Rain = 0
KSE1 081710Z 33015KT M01/M01 A3033 RMK A01 T10071008  RH  100%=      5-min Rain = 0
KSE1 081715Z 33015KT M01/M01 A3033 RMK A01 T10071008  RH  100%=      5-min Rain = 0
KSE1 081720Z 33014KT M01/M01 A3033 RMK A01 T10061008  RH  100%=      5-min Rain = 0
KSE1 081725Z 33012KT M01/M01 A3033 RMK A01 T10061007  RH  100%=      5-min Rain = 0
KSE1 081730Z 32014KT M01/M01 A3033 RMK A01 T10061007  RH  100%=      5-min Rain = 0
KSE1 081735Z 33014KT M01/M01 A3033 RMK A01 T10061008  RH  100%=      5-min Rain = 0
KSE1 081740Z 33015KT M01/M01 A3033 RMK A01 T10071008  RH  100%=      5-min Rain = 0
KSE1 081745Z 33013KT M01/M01 A3033 RMK A01 T10081009  RH  100%=      5-min Rain = 0
KSE1 081750Z 33013G18KT M01/M01 A3033 RMK A01 T10071009  RH  100%=      5-min Rain = 0
KSE1 081755Z 33015KT M01/M01 A3033 RMK A01 T10081010  RH  100%=      5-min Rain = 0
KSE1 081800Z 33014KT M01/M01 A3032 RMK A01 T10091010  RH  100%=      5-min Rain = 0
KSE1 081805Z 33013KT M01/M01 A3032 RMK A01 T10091010  RH  100%=      5-min Rain = 0
KSE1 081810Z 33013KT M01/M01 A3032 RMK A01 T10081009  RH  100%=      5-min Rain = 0
KSE1 081815Z 32012KT M01/M01 A3032 RMK A01 T10071009  RH  100%=      5-min Rain = 0
KSE1 081820Z 32014KT M01/M01 A3031 RMK A01 T10071008  RH  100%=      5-min Rain = 0
KSE1 081825Z 32015KT M01/M01 A3031 RMK A01 T10071008  RH  100%=      5-min Rain = 0
KSE1 081830Z 32014KT M01/M01 A3031 RMK A01 T10071008  RH  100%=      5-min Rain = 0
KSE1 081835Z 32014KT M01/M01 A3031 RMK A01 T10071008  RH  100%=      5-min Rain = 0
KSE1 081840Z 32013KT M01/M01 A303 RMK A01 T10061007  RH  100%=      5-min Rain = 0
KSE1 081845Z 32014KT M01/M01 A303 RMK A01 T10061007  RH  100%=      5-min Rain = 0.01
KSE1 081850Z 32017KT M01/M01 A303 RMK A01 T10071009  RH  100%=      5-min Rain = 0
KSE1 081855Z 32015KT M01/M01 A303 RMK A01 T10081009  RH  100%=      5-min Rain = 0.01
KSE1 081900Z 32014KT M01/M01 A303 RMK A01 T10071008  RH  100%=      5-min Rain = 0.01
KSE1 081905Z 32014KT M01/M01 A303 RMK A01 T10061008  RH  100%=      5-min Rain = 0.01
KSE1 081910Z 32014KT M01/M01 A3029 RMK A01 T10061007  RH  100%=      5-min Rain = 0
KSE1 081915Z 33014KT M01/M01 A3029 RMK A01 T10061008  RH  100%=      5-min Rain = 0.01
KSE1 081920Z 33012KT M01/M01 A3029 RMK A01 T10051007  RH  100%=      5-min Rain = 0.01
KSE1 081925Z 32013G18KT M01/M01 A3029 RMK A01 T10051006  RH  100%=      5-min Rain = 0
KSE1 081930Z 32016KT M01/M01 A3029 RMK A01 T10061008  RH  100%=      5-min Rain = 0.01
KSE1 081935Z 32014KT M01/M01 A3029 RMK A01 T10051007  RH  100%=      5-min Rain = 0
KSE1 081940Z 32013KT M01/M01 A3029 RMK A01 T10051006  RH  100%=      5-min Rain = 0.01
KSE1 081945Z 32015KT M01/M01 A3029 RMK A01 T10051006  RH  100%=      5-min Rain = 0
KSE1 081950Z 32013KT M00/M01 A3029 RMK A01 T10041006  RH  100%=      5-min Rain = 0.02
KSE1 081955Z 32013KT M00/M01 A3029 RMK A01 T10041006  RH  100%=      5-min Rain = 0.01
KSE1 082000Z 32014KT M01/M01 A3028 RMK A01 T10051006  RH  100%=      5-min Rain = 0
KSE1 082005Z 32012KT M00/M01 A3028 RMK A01 T10041006  RH  100%=      5-min Rain = 0.01
KSE1 082010Z 32012KT M01/M01 A3028 RMK A01 T10051006  RH  100%=      5-min Rain = 0
KSE1 082015Z 32012KT M01/M01 A3028 RMK A01 T10051006  RH  100%=      5-min Rain = 0.01
KSE1 082020Z 32011KT M01/M01 A3028 RMK A01 T10051006  RH  100%=      5-min Rain = 0
KSE1 082025Z 32011KT M00/M01 A3028 RMK A01 T10041006  RH  100%=      5-min Rain = 0.01
KSE1 082030Z 32010KT M00/M01 A3028 RMK A01 T10041006  RH  100%=      5-min Rain = 0
KSE1 082035Z 32010KT M00/M01 A3028 RMK A01 T10041005  RH  100%=      5-min Rain = 0.01
KSE1 082040Z 32010KT M00/M01 A3028 RMK A01 T10041005  RH  100%=      5-min Rain = 0
KSE1 082045Z 32009KT M00/M01 A3028 RMK A01 T10031005  RH  100%=      5-min Rain = 0.01
KSE1 082050Z 32008KT M00/M01 A3028 RMK A01 T10031005  RH  100%=      5-min Rain = 0
KSE1 082055Z 32007KT M00/M01 A3028 RMK A01 T10031005  RH  100%=      5-min Rain = 0.01
KSE1 082100Z 32006KT M00/M00 A3028 RMK A01 T10031004  RH  100%=      5-min Rain = 0
KSE1 082105Z 32006KT M00/M00 A3028 RMK A01 T10021004  RH  100%=      5-min Rain = 0
KSE1 082110Z 32006KT M00/M00 A3027 RMK A01 T10021003  RH  100%=      5-min Rain = 0
KSE1 082115Z 31006KT M00/M00 A3028 RMK A01 T10021003  RH  100%=      5-min Rain = 0
KSE1 082120Z 31007KT M00/M00 A3028 RMK A01 T10011003  RH  100%=      5-min Rain = 0
KSE1 082125Z 31007KT M00/M00 A3028 RMK A01 T10011003  RH  100%=      5-min Rain = 0.01
KSE1 082130Z 31006KT 00/00 A3028 RMK A01 T00-000-2  RH  100%=      5-min Rain = 0
KSE1 082135Z 32005KT 00/00 A3028 RMK A01 T00-000-2  RH  100%=      5-min Rain = 0
KSE1 082140Z 32004KT 00/00 A3028 RMK A01 T000000-1  RH  100%=      5-min Rain = 0
KSE1 082145Z 32004KT 00/00 A3028 RMK A01 T000000-1  RH  100%=      5-min Rain = 0.01
KSE1 082150Z 32004KT 00/M00 A3027 RMK A01 T00011001  RH  100%=      5-min Rain = 0
KSE1 082155Z 32003KT 00/00 A3027 RMK A01 T000200-0  RH  100%=      5-min Rain = 0
KSE1 082200Z 33003KT 00/00 A3027 RMK A01 T00020001  RH  100%=      5-min Rain = 0
KSE1 082205Z 32004KT 00/00 A3027 RMK A01 T00030001  RH  100%=      5-min Rain = 0
KSE1 082210Z 32004KT 00/00 A3027 RMK A01 T00030001  RH  100%=      5-min Rain = 0.01
KSE1 082215Z 31004KT 00/00 A3027 RMK A01 T00030001  RH  100%=      5-min Rain = 0
KSE1 082220Z 31004KT 00/00 A3027 RMK A01 T00040002  RH  100%=      5-min Rain = 0
KSE1 082225Z 31004KT 00/00 A3028 RMK A01 T00040002  RH  100%=      5-min Rain = 0
KSE1 082230Z 31004KT 00/00 A3027 RMK A01 T00040002  RH  100%=      5-min Rain = 0
KSE1 082235Z 31004KT 00/00 A3027 RMK A01 T00040003  RH  100%=      5-min Rain = 0
KSE1 082240Z 30004KT 00/00 A3028 RMK A01 T00040003  RH  100%=      5-min Rain = 0
KSE1 082245Z 30004KT 01/00 A3028 RMK A01 T00050003  RH  100%=      5-min Rain = 0
KSE1 082250Z 31004KT 01/00 A3028 RMK A01 T00050003  RH  100%=      5-min Rain = 0
KSE1 082255Z 31004KT 01/00 A3028 RMK A01 T00050004  RH  100%=      5-min Rain = 0
KSE1 082300Z 32003KT 01/00 A3028 RMK A01 T00050004  RH  100%=      5-min Rain = 0
KSE1 082305Z 31003KT 01/00 A3028 RMK A01 T00050004  RH  100%=      5-min Rain = 0
KSE1 082310Z 31004KT 01/00 A3028 RMK A01 T00050004  RH  100%=      5-min Rain = 0
KSE1 082315Z 30003KT 01/00 A3028 RMK A01 T00050004  RH  100%=      5-min Rain = 0
KSE1 082320Z 31003KT 01/00 A3028 RMK A01 T00050004  RH  100%=      5-min Rain = 0
KSE1 082325Z 32003KT 01/00 A3028 RMK A01 T00050004  RH  100%=      5-min Rain = 0
KSE1 082330Z 32004KT 01/00 A3028 RMK A01 T00060004  RH  100%=      5-min Rain = 0
KSE1 082335Z 32003KT 01/00 A3028 RMK A01 T00060004  RH  100%=      5-min Rain = 0
KSE1 082340Z 32003KT 01/00 A3028 RMK A01 T00060004  RH  100%=      5-min Rain = 0
KSE1 082345Z 32003KT 01/00 A3028 RMK A01 T00060004  RH  100%=      5-min Rain = 0
KSE1 082350Z 32003KT 01/00 A3028 RMK A01 T00060004  RH  100%=      5-min Rain = 0
KSE1 082355Z 32004KT 01/00 A3029 RMK A01 T00060003  RH  100%=      5-min Rain = 0
KSE1 090000Z 32004KT 01/00 A3029 RMK A01 T00060004  RH  099%=      5-min Rain = 0
KSE1 090005Z 32004KT 01/00 A3029 RMK A01 T00060003  RH  099%=      5-min Rain = 0
KSE1 090010Z 31004KT 01/00 A3029 RMK A01 T00060003  RH  099%=      5-min Rain = 0
KSE1 090015Z 31004KT 01/00 A3029 RMK A01 T00060003  RH  099%=      5-min Rain = 0
KSE1 090020Z 32004KT 01/00 A3029 RMK A01 T00060003  RH  099%=      5-min Rain = 0
KSE1 090025Z 32004KT 01/00 A3029 RMK A01 T00060002  RH  098%=      5-min Rain = 0
KSE1 090030Z 32004KT 01/00 A3029 RMK A01 T00060002  RH  098%=      5-min Rain = 0
KSE1 090035Z 33003KT 01/00 A3029 RMK A01 T00070002  RH  098%=      5-min Rain = 0
KSE1 090040Z 31004KT 01/00 A3029 RMK A01 T00060001  RH  097%=      5-min Rain = 0
KSE1 090045Z 30004KT 01/M00 A3029 RMK A01 T00061001  RH  097%=      5-min Rain = 0
KSE1 090050Z 30004KT 01/M00 A3029 RMK A01 T00061001  RH  096%=      5-min Rain = 0
KSE1 090055Z 30003KT 01/M00 A3029 RMK A01 T00051003  RH  096%=      5-min Rain = 0
KSE1 090100Z 30004KT 01/M00 A3029 RMK A01 T00051003  RH  095%=      5-min Rain = 0
KSE1 090105Z 30005KT 01/M00 A303 RMK A01 T00051003  RH  095%=      5-min Rain = 0
KSE1 090110Z 30005KT 01/M00 A303 RMK A01 T00051003  RH  095%=      5-min Rain = 0
KSE1 090115Z 31004KT 01/M00 A303 RMK A01 T00051004  RH  095%=      5-min Rain = 0
KSE1 090120Z 31004KT 01/M01 A303 RMK A01 T00051005  RH  094%=      5-min Rain = 0
KSE1 090125Z 31004KT 01/M01 A303 RMK A01 T00051005  RH  094%=      5-min Rain = 0
KSE1 090130Z 31004KT 01/M01 A303 RMK A01 T00051005  RH  094%=      5-min Rain = 0
KSE1 090135Z 31005KT 01/M01 A303 RMK A01 T00061005  RH  093%=      5-min Rain = 0
KSE1 090140Z 31004KT 01/M01 A303 RMK A01 T00061007  RH  092%=      5-min Rain = 0
KSE1 090145Z 31004KT 01/M01 A303 RMK A01 T00061007  RH  092%=      5-min Rain = 0
KSE1 090150Z 31004KT 01/M01 A303 RMK A01 T00061007  RH  092%=      5-min Rain = 0
KSE1 090155Z 31004KT 01/M01 A303 RMK A01 T00071007  RH  092%=      5-min Rain = 0
KSE1 090200Z 31004KT 01/M01 A303 RMK A01 T00071007  RH  091%=      5-min Rain = 0
KSE1 090205Z 31004KT 01/M01 A303 RMK A01 T00071007  RH  091%=      5-min Rain = 0
KSE1 090210Z 31005KT 01/M01 A3031 RMK A01 T00071007  RH  091%=      5-min Rain = 0
KSE1 090215Z 31004KT 01/M01 A3031 RMK A01 T00081008  RH  090%=      5-min Rain = 0
KSE1 090220Z 32004KT 01/M01 A3031 RMK A01 T00081009  RH  089%=      5-min Rain = 0
KSE1 090225Z 32004KT 01/M01 A3031 RMK A01 T00081010  RH  088%=      5-min Rain = 0
KSE1 090230Z 32004KT 01/M01 A3031 RMK A01 T00081010  RH  089%=      5-min Rain = 0
KSE1 090235Z 32004KT 01/M01 A3031 RMK A01 T00071011  RH  089%=      5-min Rain = 0
KSE1 090240Z 32004KT 01/M01 A303 RMK A01 T00071011  RH  089%=      5-min Rain = 0
KSE1 090245Z 32004KT 01/M01 A303 RMK A01 T00061011  RH  089%=      5-min Rain = 0
KSE1 090250Z 32004KT 01/M01 A303 RMK A01 T00061011  RH  089%=      5-min Rain = 0
KSE1 090255Z 31004KT 01/M01 A303 RMK A01 T00051012  RH  089%=      5-min Rain = 0
KSE1 090300Z 32004KT 00/M01 A303 RMK A01 T00041012  RH  089%=      5-min Rain = 0
KSE1 090305Z 33004KT 01/M01 A3031 RMK A01 T00051012  RH  090%=      5-min Rain = 0
KSE1 090310Z 33004KT 01/M01 A3031 RMK A01 T00061012  RH  089%=      5-min Rain = 0
KSE1 090315Z 32005KT 01/M01 A3031 RMK A01 T00061012  RH  088%=      5-min Rain = 0
KSE1 090320Z 32004KT 01/M01 A3031 RMK A01 T00061013  RH  088%=      5-min Rain = 0
KSE1 090325Z 32004KT 01/M01 A3031 RMK A01 T00051013  RH  088%=      5-min Rain = 0
KSE1 090330Z 32004KT 01/M01 A3031 RMK A01 T00051014  RH  088%=      5-min Rain = 0
KSE1 090335Z 33004KT 00/M02 A3031 RMK A01 T00031015  RH  088%=      5-min Rain = 0
KSE1 090340Z 32005KT 00/M02 A3031 RMK A01 T00021016  RH  088%=      5-min Rain = 0
KSE1 090345Z 32005KT 00/M02 A3031 RMK A01 T00021016  RH  088%=      5-min Rain = 0
KSE1 090350Z 31005KT 00/M02 A3031 RMK A01 T00021017  RH  088%=      5-min Rain = 0
KSE1 090355Z 31006KT 00/M02 A3031 RMK A01 T00011017  RH  088%=      5-min Rain = 0
KSE1 090400Z 31006KT 00/M02 A3031 RMK A01 T00011018  RH  088%=      5-min Rain = 0
KSE1 090405Z 31005KT 00/02 A3031 RMK A01 T00000-18  RH  088%=      5-min Rain = 0
KSE1 090410Z 31005KT M00/M02 A3031 RMK A01 T10011018  RH  089%=      5-min Rain = 0
KSE1 090415Z 30006KT M00/M02 A3031 RMK A01 T10021019  RH  089%=      5-min Rain = 0
KSE1 090420Z 30006KT M00/M02 A3031 RMK A01 T10031019  RH  090%=      5-min Rain = 0
KSE1 090425Z 31005KT M00/M02 A3031 RMK A01 T10041019  RH  090%=      5-min Rain = 0
KSE1 090430Z 32005KT M00/M02 A3031 RMK A01 T10041019  RH  090%=      5-min Rain = 0
KSE1 090435Z 31006KT M01/M02 A3031 RMK A01 T10051020  RH  090%=      5-min Rain = 0
KSE1 090440Z 30006KT M01/M02 A3031 RMK A01 T10051021  RH  090%=      5-min Rain = 0
KSE1 090445Z 30005KT M01/M02 A3031 RMK A01 T10051021  RH  090%=      5-min Rain = 0
KSE1 090450Z 29005KT M01/M02 A3032 RMK A01 T10051020  RH  090%=      5-min Rain = 0
KSE1 090455Z 29006KT M00/M02 A3032 RMK A01 T10041018  RH  091%=      5-min Rain = 0
KSE1 090500Z 29005KT M00/M02 A3032 RMK A01 T10031016  RH  091%=      5-min Rain = 0
KSE1 090505Z 29004KT M00/M02 A3032 RMK A01 T10021015  RH  091%=      5-min Rain = 0
KSE1 090510Z 29004KT M00/M02 A3032 RMK A01 T10021015  RH  092%=      5-min Rain = 0
KSE1 090515Z 30004KT M00/M02 A3032 RMK A01 T10021015  RH  092%=      5-min Rain = 0
KSE1 090520Z 30005KT M00/M02 A3032 RMK A01 T10021015  RH  091%=      5-min Rain = 0
KSE1 090525Z 30005KT M00/M02 A3032 RMK A01 T10021016  RH  092%=      5-min Rain = 0
KSE1 090530Z 29005KT M00/M02 A3032 RMK A01 T10021015  RH  092%=      5-min Rain = 0
KSE1 090535Z 29006KT M00/M01 A3032 RMK A01 T10011014  RH  092%=      5-min Rain = 0
KSE1 090540Z 29006KT 00/01 A3032 RMK A01 T00-00-13  RH  092%=      5-min Rain = 0
KSE1 090545Z 29006KT M00/M01 A3032 RMK A01 T10011013  RH  092%=      5-min Rain = 0
KSE1 090550Z 29006KT M00/M01 A3032 RMK A01 T10021014  RH  093%=      5-min Rain = 0
KSE1 090555Z 29006KT M00/M02 A3032 RMK A01 T10041015  RH  093%=      5-min Rain = 0

Page generated in 0.015 seconds.